KRLD

Richland Airport

Richland, Washington, USA
METAR KRLD 160555Z AUTO 00000KT 7SM CLR 22/15 A2981 RMK AO2 T02230150 10353 20219 403530133
Observed Flight Rules
Aug-16 @ 05:55 UTC (22 minutes ago) Visual Flight Rules
Visibility Clouds
7 miles
  • Clear skies
Temperatures Readings
Current 22°C / 72°F
Dewpoint 15°C / 59°F
Humidity 65%
Altimeter 29.81" Hg
Pressure 1009 hPa
Elevation 120
METAR KRLD 160555Z AUTO 00000KT 7SM CLR 22/15 A2981 RMK AO2 T02230150 10353 20219 403530133
Observed Flight Rules
Aug-16 @ 05:55 UTC
(22 minutes ago)
VFR
Clouds
  • Clear skies
Temperature Dewpoint
22°C / 72°F 15°C / 59°F
Humidity Altimeter Pressure
65% 29.81" Hg 1009 hPa